sensor_id;sensor_type;location;lat;lon;timestamp;P1;durP1;ratioP1;P2;durP2;ratioP2
42478;SDS011;28110;47.080;9.476;2023-11-22T00:01:29;2.50;;;1.67;;
42478;SDS011;28110;47.080;9.476;2023-11-22T00:03:55;1.83;;;1.57;;
42478;SDS011;28110;47.080;9.476;2023-11-22T00:06:20;3.97;;;1.93;;
42478;SDS011;28110;47.080;9.476;2023-11-22T00:08:46;2.05;;;1.60;;
42478;SDS011;28110;47.080;9.476;2023-11-22T00:11:12;2.53;;;1.90;;
42478;SDS011;28110;47.080;9.476;2023-11-22T00:13:38;2.90;;;1.83;;
42478;SDS011;28110;47.080;9.476;2023-11-22T00:16:04;2.22;;;1.75;;
42478;SDS011;28110;47.080;9.476;2023-11-22T00:18:30;2.70;;;1.80;;
42478;SDS011;28110;47.080;9.476;2023-11-22T00:20:55;2.63;;;2.13;;
42478;SDS011;28110;47.080;9.476;2023-11-22T00:23:22;2.57;;;1.83;;
42478;SDS011;28110;47.080;9.476;2023-11-22T00:25:52;2.45;;;1.90;;
42478;SDS011;28110;47.080;9.476;2023-11-22T00:28:18;3.55;;;2.35;;
42478;SDS011;28110;47.080;9.476;2023-11-22T00:30:43;2.80;;;2.30;;
42478;SDS011;28110;47.080;9.476;2023-11-22T00:33:10;3.47;;;2.10;;
42478;SDS011;28110;47.080;9.476;2023-11-22T00:35:35;2.70;;;2.03;;
42478;SDS011;28110;47.080;9.476;2023-11-22T00:38:01;3.10;;;2.25;;
42478;SDS011;28110;47.080;9.476;2023-11-22T00:40:26;2.47;;;2.00;;
42478;SDS011;28110;47.080;9.476;2023-11-22T00:42:52;2.75;;;1.80;;
42478;SDS011;28110;47.080;9.476;2023-11-22T00:45:18;3.00;;;2.03;;
42478;SDS011;28110;47.080;9.476;2023-11-22T00:47:43;2.83;;;2.00;;
42478;SDS011;28110;47.080;9.476;2023-11-22T00:50:09;2.77;;;1.90;;
42478;SDS011;28110;47.080;9.476;2023-11-22T00:52:35;2.30;;;1.90;;
42478;SDS011;28110;47.080;9.476;2023-11-22T00:55:00;4.80;;;1.58;;
42478;SDS011;28110;47.080;9.476;2023-11-22T00:57:26;2.50;;;2.00;;
42478;SDS011;28110;47.080;9.476;2023-11-22T00:59:55;2.70;;;2.05;;
42478;SDS011;28110;47.080;9.476;2023-11-22T01:02:21;3.60;;;2.23;;
42478;SDS011;28110;47.080;9.476;2023-11-22T01:04:46;3.80;;;3.10;;
42478;SDS011;28110;47.080;9.476;2023-11-22T01:07:12;5.60;;;2.97;;
42478;SDS011;28110;47.080;9.476;2023-11-22T01:09:38;4.67;;;2.97;;
42478;SDS011;28110;47.080;9.476;2023-11-22T01:12:03;4.35;;;3.40;;
42478;SDS011;28110;47.080;9.476;2023-11-22T01:14:29;4.47;;;3.30;;
42478;SDS011;28110;47.080;9.476;2023-11-22T01:16:55;3.92;;;3.00;;
42478;SDS011;28110;47.080;9.476;2023-11-22T01:19:20;3.67;;;2.97;;
42478;SDS011;28110;47.080;9.476;2023-11-22T01:21:46;7.38;;;3.33;;
42478;SDS011;28110;47.080;9.476;2023-11-22T01:24:12;5.60;;;3.37;;
42478;SDS011;28110;47.080;9.476;2023-11-22T01:26:37;4.80;;;3.13;;
42478;SDS011;28110;47.080;9.476;2023-11-22T01:29:03;7.30;;;3.10;;
42478;SDS011;28110;47.080;9.476;2023-11-22T01:31:29;4.70;;;3.33;;
42478;SDS011;28110;47.080;9.476;2023-11-22T01:33:55;4.43;;;3.15;;
42478;SDS011;28110;47.080;9.476;2023-11-22T01:36:20;3.15;;;2.47;;
42478;SDS011;28110;47.080;9.476;2023-11-22T01:38:46;3.73;;;2.70;;
42478;SDS011;28110;47.080;9.476;2023-11-22T01:41:12;3.28;;;2.50;;
42478;SDS011;28110;47.080;9.476;2023-11-22T01:43:38;5.20;;;2.37;;
42478;SDS011;28110;47.080;9.476;2023-11-22T01:46:05;4.22;;;2.72;;
42478;SDS011;28110;47.080;9.476;2023-11-22T01:48:39;3.88;;;2.10;;
42478;SDS011;28110;47.080;9.476;2023-11-22T01:51:04;3.37;;;2.10;;
42478;SDS011;28110;47.080;9.476;2023-11-22T01:53:31;7.35;;;2.38;;
42478;SDS011;28110;47.080;9.476;2023-11-22T01:55:57;2.17;;;1.67;;
42478;SDS011;28110;47.080;9.476;2023-11-22T01:58:23;3.00;;;1.83;;
42478;SDS011;28110;47.080;9.476;2023-11-22T02:00:49;2.77;;;1.67;;
42478;SDS011;28110;47.080;9.476;2023-11-22T02:03:16;1.45;;;1.15;;
42478;SDS011;28110;47.080;9.476;2023-11-22T02:05:43;3.13;;;2.03;;
42478;SDS011;28110;47.080;9.476;2023-11-22T02:08:12;3.03;;;1.95;;
42478;SDS011;28110;47.080;9.476;2023-11-22T02:10:38;3.10;;;1.90;;
42478;SDS011;28110;47.080;9.476;2023-11-22T02:13:05;3.67;;;2.30;;
42478;SDS011;28110;47.080;9.476;2023-11-22T02:15:33;4.60;;;2.10;;
42478;SDS011;28110;47.080;9.476;2023-11-22T02:17:59;3.10;;;2.17;;
42478;SDS011;28110;47.080;9.476;2023-11-22T02:20:24;2.30;;;1.50;;
42478;SDS011;28110;47.080;9.476;2023-11-22T02:22:50;2.47;;;1.70;;
42478;SDS011;28110;47.080;9.476;2023-11-22T02:25:16;4.25;;;1.83;;
42478;SDS011;28110;47.080;9.476;2023-11-22T02:27:42;2.53;;;1.50;;
42478;SDS011;28110;47.080;9.476;2023-11-22T02:30:08;4.10;;;1.55;;
42478;SDS011;28110;47.080;9.476;2023-11-22T02:32:34;2.03;;;1.55;;
42478;SDS011;28110;47.080;9.476;2023-11-22T02:34:59;2.03;;;1.10;;
42478;SDS011;28110;47.080;9.476;2023-11-22T02:37:25;1.58;;;1.00;;
42478;SDS011;28110;47.080;9.476;2023-11-22T02:39:57;2.72;;;1.40;;
42478;SDS011;28110;47.080;9.476;2023-11-22T02:42:29;1.87;;;1.20;;
42478;SDS011;28110;47.080;9.476;2023-11-22T02:44:55;2.40;;;1.40;;
42478;SDS011;28110;47.080;9.476;2023-11-22T02:47:21;2.60;;;1.67;;
42478;SDS011;28110;47.080;9.476;2023-11-22T02:49:47;2.58;;;1.90;;
42478;SDS011;28110;47.080;9.476;2023-11-22T02:52:12;3.67;;;2.10;;
42478;SDS011;28110;47.080;9.476;2023-11-22T02:54:40;5.07;;;2.10;;
42478;SDS011;28110;47.080;9.476;2023-11-22T02:57:12;3.38;;;2.03;;
42478;SDS011;28110;47.080;9.476;2023-11-22T02:59:41;3.60;;;2.00;;
42478;SDS011;28110;47.080;9.476;2023-11-22T03:02:07;3.17;;;2.00;;
42478;SDS011;28110;47.080;9.476;2023-11-22T03:04:33;3.63;;;2.27;;
42478;SDS011;28110;47.080;9.476;2023-11-22T03:06:59;4.03;;;2.13;;
42478;SDS011;28110;47.080;9.476;2023-11-22T03:09:24;3.77;;;2.43;;
42478;SDS011;28110;47.080;9.476;2023-11-22T03:11:51;6.55;;;2.65;;
42478;SDS011;28110;47.080;9.476;2023-11-22T03:14:17;4.30;;;2.42;;
42478;SDS011;28110;47.080;9.476;2023-11-22T03:16:43;3.55;;;2.33;;
42478;SDS011;28110;47.080;9.476;2023-11-22T03:19:08;4.73;;;2.90;;
42478;SDS011;28110;47.080;9.476;2023-11-22T03:21:35;4.30;;;2.60;;
42478;SDS011;28110;47.080;9.476;2023-11-22T03:24:01;4.93;;;3.03;;
42478;SDS011;28110;47.080;9.476;2023-11-22T03:26:29;3.97;;;2.78;;
42478;SDS011;28110;47.080;9.476;2023-11-22T03:28:54;4.45;;;2.60;;
42478;SDS011;28110;47.080;9.476;2023-11-22T03:31:20;2.90;;;2.20;;
42478;SDS011;28110;47.080;9.476;2023-11-22T03:33:46;4.07;;;2.55;;
42478;SDS011;28110;47.080;9.476;2023-11-22T03:36:12;4.60;;;2.25;;
42478;SDS011;28110;47.080;9.476;2023-11-22T03:38:38;3.90;;;2.53;;
42478;SDS011;28110;47.080;9.476;2023-11-22T03:41:04;6.05;;;2.95;;
42478;SDS011;28110;47.080;9.476;2023-11-22T03:43:30;3.60;;;2.50;;
42478;SDS011;28110;47.080;9.476;2023-11-22T03:45:56;5.30;;;3.38;;
42478;SDS011;28110;47.080;9.476;2023-11-22T03:48:21;5.87;;;3.17;;
42478;SDS011;28110;47.080;9.476;2023-11-22T03:50:48;5.90;;;3.28;;
42478;SDS011;28110;47.080;9.476;2023-11-22T03:53:14;5.18;;;3.45;;
42478;SDS011;28110;47.080;9.476;2023-11-22T03:55:40;4.40;;;2.67;;
42478;SDS011;28110;47.080;9.476;2023-11-22T03:58:05;5.78;;;2.97;;
42478;SDS011;28110;47.080;9.476;2023-11-22T04:00:32;5.50;;;2.57;;
42478;SDS011;28110;47.080;9.476;2023-11-22T04:02:58;4.20;;;3.05;;
42478;SDS011;28110;47.080;9.476;2023-11-22T04:05:26;4.25;;;2.60;;
42478;SDS011;28110;47.080;9.476;2023-11-22T04:07:52;4.80;;;3.00;;
42478;SDS011;28110;47.080;9.476;2023-11-22T04:10:18;4.10;;;2.50;;
42478;SDS011;28110;47.080;9.476;2023-11-22T04:12:44;3.90;;;2.30;;
42478;SDS011;28110;47.080;9.476;2023-11-22T04:15:10;3.58;;;2.40;;
42478;SDS011;28110;47.080;9.476;2023-11-22T04:17:36;3.85;;;2.33;;
42478;SDS011;28110;47.080;9.476;2023-11-22T04:20:03;4.30;;;2.90;;
42478;SDS011;28110;47.080;9.476;2023-11-22T04:22:33;6.35;;;3.00;;
42478;SDS011;28110;47.080;9.476;2023-11-22T04:24:59;5.05;;;3.13;;
42478;SDS011;28110;47.080;9.476;2023-11-22T04:27:26;4.68;;;2.83;;
42478;SDS011;28110;47.080;9.476;2023-11-22T04:29:51;5.57;;;3.30;;
42478;SDS011;28110;47.080;9.476;2023-11-22T04:32:17;5.80;;;2.90;;
42478;SDS011;28110;47.080;9.476;2023-11-22T04:34:42;4.65;;;2.83;;
42478;SDS011;28110;47.080;9.476;2023-11-22T04:37:08;5.60;;;2.65;;
42478;SDS011;28110;47.080;9.476;2023-11-22T04:39:33;4.83;;;3.17;;
42478;SDS011;28110;47.080;9.476;2023-11-22T04:41:59;8.77;;;3.20;;
42478;SDS011;28110;47.080;9.476;2023-11-22T04:44:25;7.65;;;3.00;;
42478;SDS011;28110;47.080;9.476;2023-11-22T04:46:51;5.63;;;2.83;;
42478;SDS011;28110;47.080;9.476;2023-11-22T04:49:16;7.50;;;3.20;;
42478;SDS011;28110;47.080;9.476;2023-11-22T04:51:42;6.90;;;3.08;;
42478;SDS011;28110;47.080;9.476;2023-11-22T04:54:09;6.97;;;3.30;;
42478;SDS011;28110;47.080;9.476;2023-11-22T04:56:34;4.63;;;3.08;;
42478;SDS011;28110;47.080;9.476;2023-11-22T04:59:00;6.93;;;3.03;;
42478;SDS011;28110;47.080;9.476;2023-11-22T05:01:31;5.70;;;2.90;;
42478;SDS011;28110;47.080;9.476;2023-11-22T05:03:57;4.88;;;3.13;;
42478;SDS011;28110;47.080;9.476;2023-11-22T05:06:23;6.15;;;3.17;;
42478;SDS011;28110;47.080;9.476;2023-11-22T05:08:49;5.85;;;3.08;;
42478;SDS011;28110;47.080;9.476;2023-11-22T05:11:15;9.60;;;3.90;;
42478;SDS011;28110;47.080;9.476;2023-11-22T05:13:41;7.20;;;3.63;;
42478;SDS011;28110;47.080;9.476;2023-11-22T05:16:08;7.83;;;3.83;;
42478;SDS011;28110;47.080;9.476;2023-11-22T05:18:34;9.63;;;3.90;;
42478;SDS011;28110;47.080;9.476;2023-11-22T05:21:00;8.05;;;4.35;;
42478;SDS011;28110;47.080;9.476;2023-11-22T05:23:28;8.02;;;3.97;;
42478;SDS011;28110;47.080;9.476;2023-11-22T05:25:53;12.97;;;3.90;;
42478;SDS011;28110;47.080;9.476;2023-11-22T05:28:19;9.17;;;3.80;;
42478;SDS011;28110;47.080;9.476;2023-11-22T05:30:44;9.35;;;5.57;;
42478;SDS011;28110;47.080;9.476;2023-11-22T05:33:10;9.50;;;6.00;;
42478;SDS011;28110;47.080;9.476;2023-11-22T05:35:36;11.20;;;6.47;;
42478;SDS011;28110;47.080;9.476;2023-11-22T05:38:02;10.07;;;5.73;;
42478;SDS011;28110;47.080;9.476;2023-11-22T05:40:27;10.50;;;5.65;;
42478;SDS011;28110;47.080;9.476;2023-11-22T05:42:53;11.57;;;6.00;;
42478;SDS011;28110;47.080;9.476;2023-11-22T05:45:18;10.07;;;6.13;;
42478;SDS011;28110;47.080;9.476;2023-11-22T05:47:44;9.05;;;5.93;;
42478;SDS011;28110;47.080;9.476;2023-11-22T05:50:09;7.33;;;3.77;;
42478;SDS011;28110;47.080;9.476;2023-11-22T05:52:35;11.80;;;4.80;;
42478;SDS011;28110;47.080;9.476;2023-11-22T05:55:01;7.45;;;4.18;;
42478;SDS011;28110;47.080;9.476;2023-11-22T05:57:29;5.63;;;3.67;;
42478;SDS011;28110;47.080;9.476;2023-11-22T05:59:55;8.15;;;4.68;;
42478;SDS011;28110;47.080;9.476;2023-11-22T06:02:21;9.55;;;5.60;;
42478;SDS011;28110;47.080;9.476;2023-11-22T06:04:47;8.15;;;5.00;;
42478;SDS011;28110;47.080;9.476;2023-11-22T06:07:13;9.90;;;4.80;;
42478;SDS011;28110;47.080;9.476;2023-11-22T06:09:38;8.37;;;4.77;;
42478;SDS011;28110;47.080;9.476;2023-11-22T06:12:05;7.68;;;4.65;;
42478;SDS011;28110;47.080;9.476;2023-11-22T06:14:30;7.72;;;4.40;;
42478;SDS011;28110;47.080;9.476;2023-11-22T06:16:56;6.77;;;4.10;;
42478;SDS011;28110;47.080;9.476;2023-11-22T06:19:22;6.68;;;3.80;;
42478;SDS011;28110;47.080;9.476;2023-11-22T06:21:48;7.27;;;4.03;;
42478;SDS011;28110;47.080;9.476;2023-11-22T06:24:13;5.70;;;3.58;;
42478;SDS011;28110;47.080;9.476;2023-11-22T06:26:43;7.57;;;3.65;;
42478;SDS011;28110;47.080;9.476;2023-11-22T06:29:11;6.07;;;3.58;;
42478;SDS011;28110;47.080;9.476;2023-11-22T06:31:37;7.40;;;3.55;;
42478;SDS011;28110;47.080;9.476;2023-11-22T06:34:02;5.77;;;3.87;;
42478;SDS011;28110;47.080;9.476;2023-11-22T06:36:28;8.97;;;4.40;;
42478;SDS011;28110;47.080;9.476;2023-11-22T06:38:54;9.50;;;4.85;;
42478;SDS011;28110;47.080;9.476;2023-11-22T06:41:20;6.18;;;4.35;;
42478;SDS011;28110;47.080;9.476;2023-11-22T06:43:49;8.20;;;4.88;;
42478;SDS011;28110;47.080;9.476;2023-11-22T06:46:15;9.83;;;5.77;;
42478;SDS011;28110;47.080;9.476;2023-11-22T06:48:43;12.93;;;6.75;;
42478;SDS011;28110;47.080;9.476;2023-11-22T06:51:09;10.13;;;5.27;;
42478;SDS011;28110;47.080;9.476;2023-11-22T06:53:34;7.03;;;3.80;;
42478;SDS011;28110;47.080;9.476;2023-11-22T06:56:00;6.73;;;3.80;;
42478;SDS011;28110;47.080;9.476;2023-11-22T06:58:26;7.93;;;3.83;;
42478;SDS011;28110;47.080;9.476;2023-11-22T07:00:52;6.03;;;3.40;;
42478;SDS011;28110;47.080;9.476;2023-11-22T07:03:17;4.17;;;2.70;;
42478;SDS011;28110;47.080;9.476;2023-11-22T07:05:43;5.27;;;3.17;;
42478;SDS011;28110;47.080;9.476;2023-11-22T07:08:09;4.03;;;2.20;;
42478;SDS011;28110;47.080;9.476;2023-11-22T07:10:36;3.60;;;1.85;;
42478;SDS011;28110;47.080;9.476;2023-11-22T07:13:01;2.20;;;1.40;;
42478;SDS011;28110;47.080;9.476;2023-11-22T07:15:27;2.80;;;1.55;;
42478;SDS011;28110;47.080;9.476;2023-11-22T07:17:53;2.65;;;1.60;;
42478;SDS011;28110;47.080;9.476;2023-11-22T07:20:19;3.45;;;1.88;;
42478;SDS011;28110;47.080;9.476;2023-11-22T07:22:45;3.65;;;1.80;;
42478;SDS011;28110;47.080;9.476;2023-11-22T07:25:11;2.58;;;1.67;;
42478;SDS011;28110;47.080;9.476;2023-11-22T07:27:43;2.72;;;1.75;;
42478;SDS011;28110;47.080;9.476;2023-11-22T07:30:14;4.32;;;2.13;;
42478;SDS011;28110;47.080;9.476;2023-11-22T07:32:41;3.25;;;1.80;;
42478;SDS011;28110;47.080;9.476;2023-11-22T07:35:07;3.20;;;1.88;;
42478;SDS011;28110;47.080;9.476;2023-11-22T07:37:36;3.67;;;1.83;;
42478;SDS011;28110;47.080;9.476;2023-11-22T07:40:07;4.97;;;2.25;;
42478;SDS011;28110;47.080;9.476;2023-11-22T07:42:34;3.83;;;1.80;;
42478;SDS011;28110;47.080;9.476;2023-11-22T07:45:00;2.53;;;1.45;;
42478;SDS011;28110;47.080;9.476;2023-11-22T07:47:26;4.03;;;1.42;;
42478;SDS011;28110;47.080;9.476;2023-11-22T07:49:53;3.10;;;1.77;;
42478;SDS011;28110;47.080;9.476;2023-11-22T07:52:20;3.05;;;1.75;;
42478;SDS011;28110;47.080;9.476;2023-11-22T07:54:55;2.13;;;1.52;;
42478;SDS011;28110;47.080;9.476;2023-11-22T07:57:21;3.40;;;1.70;;
42478;SDS011;28110;47.080;9.476;2023-11-22T07:59:48;3.40;;;1.30;;
42478;SDS011;28110;47.080;9.476;2023-11-22T08:02:14;1.43;;;1.00;;
42478;SDS011;28110;47.080;9.476;2023-11-22T08:04:43;2.00;;;1.10;;
42478;SDS011;28110;47.080;9.476;2023-11-22T08:07:09;2.70;;;1.38;;
42478;SDS011;28110;47.080;9.476;2023-11-22T08:09:36;3.03;;;1.15;;
42478;SDS011;28110;47.080;9.476;2023-11-22T08:12:01;2.00;;;1.30;;
42478;SDS011;28110;47.080;9.476;2023-11-22T08:14:28;2.97;;;1.45;;
42478;SDS011;28110;47.080;9.476;2023-11-22T08:16:53;3.20;;;1.47;;
42478;SDS011;28110;47.080;9.476;2023-11-22T08:19:19;2.80;;;1.70;;
42478;SDS011;28110;47.080;9.476;2023-11-22T08:21:45;2.20;;;1.48;;
42478;SDS011;28110;47.080;9.476;2023-11-22T08:24:10;4.33;;;1.97;;
42478;SDS011;28110;47.080;9.476;2023-11-22T08:26:38;4.03;;;1.80;;
42478;SDS011;28110;47.080;9.476;2023-11-22T08:29:03;4.47;;;2.03;;
42478;SDS011;28110;47.080;9.476;2023-11-22T08:31:29;2.80;;;1.60;;
42478;SDS011;28110;47.080;9.476;2023-11-22T08:33:55;3.67;;;1.48;;
42478;SDS011;28110;47.080;9.476;2023-11-22T08:36:21;3.47;;;1.58;;
42478;SDS011;28110;47.080;9.476;2023-11-22T08:38:48;3.43;;;1.63;;
42478;SDS011;28110;47.080;9.476;2023-11-22T08:41:14;2.65;;;1.20;;
42478;SDS011;28110;47.080;9.476;2023-11-22T08:43:40;2.70;;;1.10;;
42478;SDS011;28110;47.080;9.476;2023-11-22T08:46:06;1.60;;;0.90;;
42478;SDS011;28110;47.080;9.476;2023-11-22T08:48:33;1.13;;;0.80;;
42478;SDS011;28110;47.080;9.476;2023-11-22T08:50:58;2.13;;;1.15;;
42478;SDS011;28110;47.080;9.476;2023-11-22T08:53:25;0.63;;;0.50;;
42478;SDS011;28110;47.080;9.476;2023-11-22T08:55:51;0.60;;;0.50;;
42478;SDS011;28110;47.080;9.476;2023-11-22T08:58:19;0.30;;;0.30;;
42478;SDS011;28110;47.080;9.476;2023-11-22T09:00:46;0.40;;;0.30;;
42478;SDS011;28110;47.080;9.476;2023-11-22T09:03:12;0.67;;;0.27;;
42478;SDS011;28110;47.080;9.476;2023-11-22T09:05:41;0.52;;;0.30;;
42478;SDS011;28110;47.080;9.476;2023-11-22T09:10:32;0.20;;;0.20;;
42478;SDS011;28110;47.080;9.476;2023-11-22T09:12:58;0.22;;;0.20;;
42478;SDS011;28110;47.080;9.476;2023-11-22T09:15:24;0.50;;;0.28;;
42478;SDS011;28110;47.080;9.476;2023-11-22T09:17:54;0.20;;;0.20;;
42478;SDS011;28110;47.080;9.476;2023-11-22T09:20:20;0.60;;;0.40;;
42478;SDS011;28110;47.080;9.476;2023-11-22T09:22:46;2.40;;;0.47;;
42478;SDS011;28110;47.080;9.476;2023-11-22T09:25:14;0.70;;;0.30;;
42478;SDS011;28110;47.080;9.476;2023-11-22T09:27:49;0.65;;;0.32;;
42478;SDS011;28110;47.080;9.476;2023-11-22T09:30:18;1.85;;;0.40;;
42478;SDS011;28110;47.080;9.476;2023-11-22T09:33:00;0.30;;;0.30;;
42478;SDS011;28110;47.080;9.476;2023-11-22T09:35:27;2.05;;;0.40;;
42478;SDS011;28110;47.080;9.476;2023-11-22T09:38:00;0.38;;;0.38;;
42478;SDS011;28110;47.080;9.476;2023-11-22T09:40:27;0.60;;;0.35;;
42478;SDS011;28110;47.080;9.476;2023-11-22T09:43:01;1.45;;;0.30;;
42478;SDS011;28110;47.080;9.476;2023-11-22T09:45:27;1.73;;;0.40;;
42478;SDS011;28110;47.080;9.476;2023-11-22T09:47:57;0.57;;;0.38;;
42478;SDS011;28110;47.080;9.476;2023-11-22T09:50:35;0.35;;;0.28;;
42478;SDS011;28110;47.080;9.476;2023-11-22T09:55:57;0.53;;;0.27;;
42478;SDS011;28110;47.080;9.476;2023-11-22T09:58:23;0.28;;;0.20;;
42478;SDS011;28110;47.080;9.476;2023-11-22T10:00:50;0.40;;;0.28;;
42478;SDS011;28110;47.080;9.476;2023-11-22T10:03:17;0.33;;;0.30;;
42478;SDS011;28110;47.080;9.476;2023-11-22T10:05:43;0.55;;;0.40;;
42478;SDS011;28110;47.080;9.476;2023-11-22T10:08:09;0.35;;;0.30;;
42478;SDS011;28110;47.080;9.476;2023-11-22T10:10:36;0.40;;;0.20;;
42478;SDS011;28110;47.080;9.476;2023-11-22T10:13:02;0.50;;;0.20;;
42478;SDS011;28110;47.080;9.476;2023-11-22T10:15:28;0.77;;;0.28;;
42478;SDS011;28110;47.080;9.476;2023-11-22T10:20:22;1.50;;;0.33;;
42478;SDS011;28110;47.080;9.476;2023-11-22T10:23:00;0.40;;;0.35;;
42478;SDS011;28110;47.080;9.476;2023-11-22T10:25:25;0.30;;;0.30;;
42478;SDS011;28110;47.080;9.476;2023-11-22T10:27:51;0.70;;;0.30;;
42478;SDS011;28110;47.080;9.476;2023-11-22T10:30:17;0.70;;;0.50;;
42478;SDS011;28110;47.080;9.476;2023-11-22T10:32:44;0.50;;;0.30;;
42478;SDS011;28110;47.080;9.476;2023-11-22T10:35:10;0.70;;;0.57;;
42478;SDS011;28110;47.080;9.476;2023-11-22T10:37:41;1.33;;;0.45;;
42478;SDS011;28110;47.080;9.476;2023-11-22T10:40:09;1.83;;;0.40;;
42478;SDS011;28110;47.080;9.476;2023-11-22T10:42:38;0.65;;;0.43;;
42478;SDS011;28110;47.080;9.476;2023-11-22T10:45:07;0.30;;;0.27;;
42478;SDS011;28110;47.080;9.476;2023-11-22T10:47:36;0.65;;;0.30;;
42478;SDS011;28110;47.080;9.476;2023-11-22T10:50:07;1.20;;;0.40;;
42478;SDS011;28110;47.080;9.476;2023-11-22T10:52:35;0.88;;;0.30;;
42478;SDS011;28110;47.080;9.476;2023-11-22T10:55:04;0.50;;;0.40;;
42478;SDS011;28110;47.080;9.476;2023-11-22T10:57:37;0.77;;;0.50;;
42478;SDS011;28110;47.080;9.476;2023-11-22T11:00:08;0.60;;;0.50;;
42478;SDS011;28110;47.080;9.476;2023-11-22T11:02:41;1.58;;;0.38;;
42478;SDS011;28110;47.080;9.476;2023-11-22T11:05:18;0.85;;;0.50;;
42478;SDS011;28110;47.080;9.476;2023-11-22T11:07:53;1.02;;;0.40;;
42478;SDS011;28110;47.080;9.476;2023-11-22T11:10:24;0.93;;;0.40;;
42478;SDS011;28110;47.080;9.476;2023-11-22T11:12:51;1.33;;;0.57;;
42478;SDS011;28110;47.080;9.476;2023-11-22T11:15:18;0.85;;;0.50;;
42478;SDS011;28110;47.080;9.476;2023-11-22T11:17:46;0.38;;;0.30;;
42478;SDS011;28110;47.080;9.476;2023-11-22T11:20:13;0.77;;;0.52;;
42478;SDS011;28110;47.080;9.476;2023-11-22T11:22:42;0.53;;;0.40;;
42478;SDS011;28110;47.080;9.476;2023-11-22T11:25:08;0.77;;;0.40;;
42478;SDS011;28110;47.080;9.476;2023-11-22T11:27:34;0.90;;;0.50;;
42478;SDS011;28110;47.080;9.476;2023-11-22T11:30:49;0.50;;;0.50;;
42478;SDS011;28110;47.080;9.476;2023-11-22T11:33:08;3.03;;;0.40;;
42478;SDS011;28110;47.080;9.476;2023-11-22T11:35:52;0.57;;;0.40;;
42478;SDS011;28110;47.080;9.476;2023-11-22T11:38:22;0.82;;;0.40;;
42478;SDS011;28110;47.080;9.476;2023-11-22T11:40:58;2.35;;;0.50;;
42478;SDS011;28110;47.080;9.476;2023-11-22T11:43:47;0.75;;;0.50;;
42478;SDS011;28110;47.080;9.476;2023-11-22T11:46:16;1.30;;;0.63;;
42478;SDS011;28110;47.080;9.476;2023-11-22T11:48:51;0.95;;;0.60;;
42478;SDS011;28110;47.080;9.476;2023-11-22T11:51:19;1.13;;;0.80;;
42478;SDS011;28110;47.080;9.476;2023-11-22T11:53:46;1.00;;;0.50;;
42478;SDS011;28110;47.080;9.476;2023-11-22T11:56:12;0.63;;;0.50;;
42478;SDS011;28110;47.080;9.476;2023-11-22T11:58:38;0.98;;;0.60;;
42478;SDS011;28110;47.080;9.476;2023-11-22T12:01:06;2.45;;;0.93;;
42478;SDS011;28110;47.080;9.476;2023-11-22T12:03:32;1.30;;;0.90;;
42478;SDS011;28110;47.080;9.476;2023-11-22T12:06:01;2.00;;;1.20;;
42478;SDS011;28110;47.080;9.476;2023-11-22T12:08:26;1.80;;;1.30;;
42478;SDS011;28110;47.080;9.476;2023-11-22T12:10:56;2.70;;;1.70;;
42478;SDS011;28110;47.080;9.476;2023-11-22T12:13:23;1.95;;;1.35;;
42478;SDS011;28110;47.080;9.476;2023-11-22T12:15:50;3.25;;;1.70;;
42478;SDS011;28110;47.080;9.476;2023-11-22T12:18:19;2.43;;;1.50;;
42478;SDS011;28110;47.080;9.476;2023-11-22T12:21:00;2.90;;;1.80;;
42478;SDS011;28110;47.080;9.476;2023-11-22T12:23:26;3.58;;;1.80;;
42478;SDS011;28110;47.080;9.476;2023-11-22T12:25:59;2.47;;;1.77;;
42478;SDS011;28110;47.080;9.476;2023-11-22T12:28:27;5.13;;;2.05;;
42478;SDS011;28110;47.080;9.476;2023-11-22T12:30:54;2.78;;;1.70;;
42478;SDS011;28110;47.080;9.476;2023-11-22T12:33:20;4.33;;;2.40;;
42478;SDS011;28110;47.080;9.476;2023-11-22T12:35:46;3.55;;;2.20;;
42478;SDS011;28110;47.080;9.476;2023-11-22T12:38:13;3.55;;;2.05;;
42478;SDS011;28110;47.080;9.476;2023-11-22T12:40:45;3.80;;;2.10;;
42478;SDS011;28110;47.080;9.476;2023-11-22T12:43:14;3.65;;;2.40;;
42478;SDS011;28110;47.080;9.476;2023-11-22T12:45:40;4.35;;;2.60;;
42478;SDS011;28110;47.080;9.476;2023-11-22T12:48:19;4.53;;;2.67;;
42478;SDS011;28110;47.080;9.476;2023-11-22T12:50:48;4.88;;;3.20;;
42478;SDS011;28110;47.080;9.476;2023-11-22T12:53:14;3.87;;;2.57;;
42478;SDS011;28110;47.080;9.476;2023-11-22T12:55:43;4.30;;;2.33;;
42478;SDS011;28110;47.080;9.476;2023-11-22T12:58:10;4.75;;;2.08;;
42478;SDS011;28110;47.080;9.476;2023-11-22T13:00:37;4.50;;;2.67;;
42478;SDS011;28110;47.080;9.476;2023-11-22T13:03:04;5.67;;;3.07;;
42478;SDS011;28110;47.080;9.476;2023-11-22T13:05:45;4.82;;;2.67;;
42478;SDS011;28110;47.080;9.476;2023-11-22T13:08:11;4.97;;;2.97;;
42478;SDS011;28110;47.080;9.476;2023-11-22T13:10:45;4.43;;;2.13;;
42478;SDS011;28110;47.080;9.476;2023-11-22T13:13:19;4.10;;;2.35;;
42478;SDS011;28110;47.080;9.476;2023-11-22T13:15:45;2.47;;;1.97;;
42478;SDS011;28110;47.080;9.476;2023-11-22T13:18:11;3.95;;;2.17;;
42478;SDS011;28110;47.080;9.476;2023-11-22T13:20:36;4.20;;;2.40;;
42478;SDS011;28110;47.080;9.476;2023-11-22T13:23:03;4.32;;;2.20;;
42478;SDS011;28110;47.080;9.476;2023-11-22T13:25:29;4.07;;;2.33;;
42478;SDS011;28110;47.080;9.476;2023-11-22T13:27:54;3.92;;;2.25;;
42478;SDS011;28110;47.080;9.476;2023-11-22T13:30:21;3.73;;;1.90;;
42478;SDS011;28110;47.080;9.476;2023-11-22T13:32:48;3.38;;;2.00;;
42478;SDS011;28110;47.080;9.476;2023-11-22T13:35:14;3.83;;;2.05;;
42478;SDS011;28110;47.080;9.476;2023-11-22T13:37:42;3.45;;;2.13;;
42478;SDS011;28110;47.080;9.476;2023-11-22T13:40:09;6.30;;;2.58;;
42478;SDS011;28110;47.080;9.476;2023-11-22T13:42:45;4.60;;;2.43;;
42478;SDS011;28110;47.080;9.476;2023-11-22T13:45:12;4.03;;;2.15;;
42478;SDS011;28110;47.080;9.476;2023-11-22T13:47:40;5.63;;;2.55;;
42478;SDS011;28110;47.080;9.476;2023-11-22T13:50:07;3.78;;;2.42;;
42478;SDS011;28110;47.080;9.476;2023-11-22T13:52:33;4.20;;;2.40;;
42478;SDS011;28110;47.080;9.476;2023-11-22T13:54:59;4.10;;;2.30;;
42478;SDS011;28110;47.080;9.476;2023-11-22T13:57:24;4.67;;;2.30;;
42478;SDS011;28110;47.080;9.476;2023-11-22T13:59:50;4.10;;;2.73;;
42478;SDS011;28110;47.080;9.476;2023-11-22T14:02:15;5.05;;;2.20;;
42478;SDS011;28110;47.080;9.476;2023-11-22T14:04:41;3.97;;;2.47;;
42478;SDS011;28110;47.080;9.476;2023-11-22T14:07:07;4.20;;;2.55;;
42478;SDS011;28110;47.080;9.476;2023-11-22T14:09:32;4.00;;;2.33;;
42478;SDS011;28110;47.080;9.476;2023-11-22T14:12:01;6.20;;;2.80;;
42478;SDS011;28110;47.080;9.476;2023-11-22T14:14:27;5.10;;;2.40;;
42478;SDS011;28110;47.080;9.476;2023-11-22T14:16:53;4.27;;;2.10;;
42478;SDS011;28110;47.080;9.476;2023-11-22T14:19:18;4.67;;;2.23;;
42478;SDS011;28110;47.080;9.476;2023-11-22T14:21:44;4.35;;;2.40;;
42478;SDS011;28110;47.080;9.476;2023-11-22T14:24:10;3.87;;;2.40;;
42478;SDS011;28110;47.080;9.476;2023-11-22T14:26:35;4.22;;;2.45;;
42478;SDS011;28110;47.080;9.476;2023-11-22T14:29:02;3.92;;;2.28;;
42478;SDS011;28110;47.080;9.476;2023-11-22T14:31:28;4.83;;;2.40;;
42478;SDS011;28110;47.080;9.476;2023-11-22T14:33:54;2.97;;;2.22;;
42478;SDS011;28110;47.080;9.476;2023-11-22T14:36:22;3.92;;;2.10;;
42478;SDS011;28110;47.080;9.476;2023-11-22T14:38:51;5.97;;;2.70;;
42478;SDS011;28110;47.080;9.476;2023-11-22T14:41:21;4.82;;;2.70;;
42478;SDS011;28110;47.080;9.476;2023-11-22T14:43:47;5.15;;;3.00;;
42478;SDS011;28110;47.080;9.476;2023-11-22T14:46:12;5.50;;;2.63;;
42478;SDS011;28110;47.080;9.476;2023-11-22T14:48:38;5.95;;;2.80;;
42478;SDS011;28110;47.080;9.476;2023-11-22T14:51:04;4.00;;;2.60;;
42478;SDS011;28110;47.080;9.476;2023-11-22T14:53:30;5.38;;;2.75;;
42478;SDS011;28110;47.080;9.476;2023-11-22T14:55:55;6.90;;;2.60;;